KPHL

Philadelphia International Airport

Philadelphia, Pennsylvania, USA
METAR KPHL 261254Z 24009KT 10SM SCT100 BKN150 OVC250 24/19 A2987 RMK AO2 SLP115 T02440194 $
Observed Flight Rules
May-26 @ 12:54 UTC (45 minutes ago) Visual Flight Rules
Wind Visibility Clouds
240° at 9 knots 10 miles
  • Scattered at 10,000' AGL
  • Broken at 15,000' AGL
  • Overcast at 25,000' AGL
Temperatures Readings
Current 24°C / 75°F
Dewpoint 19°C / 66°F
Humidity 74%
Altimeter 29.87" Hg
Pressure 1011.5 hPa
Elevation 18
METAR KPHL 261254Z 24009KT 10SM SCT100 BKN150 OVC250 24/19 A2987 RMK AO2 SLP115 T02440194 $
Observed Flight Rules
May-26 @ 12:54 UTC
(45 minutes ago)
VFR
Wind Visibility
240° at 9 knots 10 miles
Clouds
  • Scattered at 10,000' AGL
  • Broken at 15,000' AGL
  • Overcast at 25,000' AGL
Temperature Dewpoint
24°C / 75°F 19°C / 66°F
Humidity Altimeter Pressure
74% 29.87" Hg 1011.5 hPa